Time;durP1;ratioP1;P1;durP2;ratioP2;P2;SDS_P1;SDS_P2;PMS_P1;PMS_P2;Temp;Humidity;BMP_temperature;BMP_pressure;BME280_temperature;BME280_humidity;BME280_pressure;Samples;Min_cycle;Max_cycle;Signal;HPM_P1;HPM_P2
2023/03/28 00:01:09;;;;;;;13.68;1.95;;;2.80;99.90;;;;;;5057282;28;20523;-71
2023/03/28 00:03:38;;;;;;;8.90;1.52;;;2.80;99.90;;;;;;5054542;28;20044;-70
2023/03/28 00:06:09;;;;;;;10.57;2.35;;;2.80;99.90;;;;;;5057329;28;20392;-71
2023/03/28 00:08:38;;;;;;;8.52;1.67;;;2.70;99.90;;;;;;5057021;28;20048;-71
2023/03/28 00:11:18;;;;;;;7.05;1.70;;;2.70;99.90;;;;;;5072593;28;20036;-70
2023/03/28 00:13:45;;;;;;;10.43;1.83;;;2.60;99.90;;;;;;5070231;28;20447;-71
2023/03/28 00:16:14;;;;;;;9.77;1.60;;;2.60;99.90;;;;;;5086698;28;20029;-71
2023/03/28 00:18:41;;;;;;;11.20;2.15;;;2.60;99.90;;;;;;5053463;28;20040;-71
2023/03/28 00:21:18;;;;;;;7.25;1.40;;;2.60;99.90;;;;;;5061361;28;20051;-71
2023/03/28 00:23:44;;;;;;;9.35;1.88;;;2.70;99.90;;;;;;5073817;28;20447;-71
2023/03/28 00:26:12;;;;;;;10.90;1.80;;;2.60;99.90;;;;;;5072514;28;20504;-71
2023/03/28 00:28:38;;;;;;;7.78;1.45;;;2.60;99.90;;;;;;5073264;28;20094;-71
2023/03/28 00:31:06;;;;;;;10.27;1.70;;;2.60;99.90;;;;;;5047366;28;20033;-71
2023/03/28 00:33:31;;;;;;;7.05;1.40;;;2.50;99.90;;;;;;5053047;28;20037;-71
2023/03/28 00:35:57;;;;;;;11.18;2.13;;;2.50;99.90;;;;;;5035481;28;20047;-70
2023/03/28 00:38:23;;;;;;;10.23;1.40;;;2.50;99.90;;;;;;5052992;28;20040;-71
2023/03/28 00:40:48;;;;;;;9.75;1.40;;;2.50;99.90;;;;;;5042822;28;20090;-71
2023/03/28 00:43:14;;;;;;;12.40;2.22;;;2.50;99.90;;;;;;5056440;28;20036;-70
2023/03/28 00:45:41;;;;;;;8.00;1.30;;;2.50;99.90;;;;;;5055205;28;20381;-71
2023/03/28 00:48:12;;;;;;;8.00;1.70;;;2.50;99.90;;;;;;5054377;28;20147;-70
2023/03/28 00:50:45;;;;;;;10.88;2.33;;;2.50;99.90;;;;;;5072935;28;20056;-70
2023/03/28 00:53:20;;;;;;;9.60;1.77;;;2.40;99.90;;;;;;5056315;28;20036;-70
2023/03/28 00:55:50;;;;;;;7.97;1.60;;;2.50;99.90;;;;;;5048562;28;20048;-71
2023/03/28 00:58:23;;;;;;;6.93;1.48;;;2.40;99.90;;;;;;5052812;28;20067;-71
2023/03/28 01:00:53;;;;;;;12.25;1.73;;;2.40;99.90;;;;;;5052843;28;20123;-71
2023/03/28 01:03:22;;;;;;;13.77;1.90;;;2.40;99.90;;;;;;5065546;28;20056;-71
2023/03/28 01:05:48;;;;;;;9.00;1.67;;;2.40;99.90;;;;;;5056257;28;20096;-71
2023/03/28 01:08:20;;;;;;;9.63;2.08;;;2.30;99.90;;;;;;5055843;28;20047;-71
2023/03/28 01:10:46;;;;;;;10.70;1.77;;;2.20;99.90;;;;;;5051684;28;20492;-71
2023/03/28 01:13:15;;;;;;;8.80;1.48;;;2.20;99.90;;;;;;5035815;28;20401;-71
2023/03/28 01:15:41;;;;;;;11.73;1.40;;;2.30;99.90;;;;;;5051038;28;20043;-70
2023/03/28 01:18:10;;;;;;;13.00;2.55;;;2.30;99.90;;;;;;5072019;28;20055;-70
2023/03/28 01:21:04;;;;;;;9.85;1.73;;;2.30;99.90;;;;;;5051800;28;20036;-71
2023/03/28 01:24:02;;;;;;;7.35;1.52;;;2.20;99.90;;;;;;5035824;28;20515;-71
2023/03/28 01:27:00;;;;;;;6.88;1.70;;;2.20;99.90;;;;;;5035612;28;20439;-71
2023/03/28 01:29:53;;;;;;;9.00;1.95;;;2.20;99.90;;;;;;5035673;28;20047;-71
2023/03/28 01:32:37;;;;;;;8.88;2.10;;;2.20;99.90;;;;;;5055069;28;20508;-71
2023/03/28 01:35:25;;;;;;;9.57;1.92;;;2.20;99.90;;;;;;5071032;28;20055;-71
2023/03/28 01:38:02;;;;;;;8.90;1.63;;;2.20;99.90;;;;;;5072460;28;20388;-71
2023/03/28 01:40:49;;;;;;;6.78;1.77;;;2.20;99.90;;;;;;5070449;28;20431;-70
2023/03/28 01:43:43;;;;;;;8.88;1.50;;;2.10;99.90;;;;;;5055492;28;20071;-70
2023/03/28 01:46:20;;;;;;;11.25;1.73;;;2.10;99.90;;;;;;5059170;28;20041;-70
2023/03/28 01:49:06;;;;;;;8.10;1.90;;;2.10;99.90;;;;;;5048325;28;20044;-70
2023/03/28 01:51:49;;;;;;;6.18;1.50;;;2.20;99.90;;;;;;5070981;28;20052;-70
2023/03/28 01:54:42;;;;;;;8.48;1.75;;;2.20;99.90;;;;;;5055281;28;20048;-70
2023/03/28 01:57:32;;;;;;;9.77;1.70;;;2.10;99.90;;;;;;5071935;28;20508;-70
2023/03/28 02:00:11;;;;;;;11.75;1.45;;;2.10;99.90;;;;;;5051748;28;20041;-70
2023/03/28 02:03:24;;;;;;;7.78;1.52;;;2.10;99.90;;;;;;5058488;28;20044;-70
2023/03/28 02:05:53;;;;;;;9.32;1.75;;;2.10;99.90;;;;;;5055277;28;20048;-70
2023/03/28 02:08:20;;;;;;;9.98;1.30;;;2.20;99.90;;;;;;5070576;28;20036;-70
2023/03/28 02:10:48;;;;;;;10.25;1.65;;;2.10;99.90;;;;;;5071755;28;20040;-70
2023/03/28 02:13:21;;;;;;;8.50;1.50;;;2.00;99.90;;;;;;5055053;28;20040;-70
2023/03/28 02:15:50;;;;;;;10.25;1.50;;;2.10;99.90;;;;;;5050114;28;20038;-70
2023/03/28 02:18:22;;;;;;;8.90;1.40;;;2.20;99.90;;;;;;5071704;28;20051;-70
2023/03/28 02:21:00;;;;;;;8.23;1.42;;;2.10;99.90;;;;;;5055006;28;20614;-70
2023/03/28 02:23:31;;;;;;;9.18;1.70;;;2.10;99.90;;;;;;5071764;28;20048;-70
2023/03/28 02:25:57;;;;;;;11.82;1.90;;;2.10;99.90;;;;;;5062413;28;20041;-70
2023/03/28 02:28:23;;;;;;;9.45;2.00;;;2.20;99.90;;;;;;5051444;28;20132;-70
2023/03/28 02:30:50;;;;;;;7.15;1.55;;;2.20;99.90;;;;;;5051602;28;20603;-70
2023/03/28 02:33:52;;;;;;;7.97;1.58;;;2.10;99.90;;;;;;5034947;28;20041;-71
2023/03/28 02:36:26;;;;;;;11.18;1.60;;;2.20;99.90;;;;;;5065071;28;20048;-70
2023/03/28 02:39:09;;;;;;;9.48;1.30;;;2.20;99.90;;;;;;5055782;28;20049;-70
2023/03/28 02:41:53;;;;;;;6.07;1.27;;;2.10;99.90;;;;;;5038925;28;20166;-70
2023/03/28 02:44:50;;;;;;;11.88;1.90;;;2.10;99.90;;;;;;5061769;28;20392;-70
2023/03/28 02:47:47;;;;;;;6.35;1.30;;;2.10;99.90;;;;;;5075300;28;20050;-71
2023/03/28 02:50:43;;;;;;;7.15;1.20;;;2.10;99.90;;;;;;5054058;28;20080;-70
2023/03/28 02:53:31;;;;;;;8.50;1.48;;;2.10;99.90;;;;;;5038283;28;20080;-70
2023/03/28 02:56:04;;;;;;;9.02;2.35;;;2.10;99.90;;;;;;5062777;28;20036;-70
2023/03/28 02:58:39;;;;;;;9.45;1.77;;;2.10;99.90;;;;;;5058780;28;20052;-70
2023/03/28 03:01:09;;;;;;;6.63;1.30;;;2.10;99.90;;;;;;5057547;28;20040;-70
2023/03/28 03:03:35;;;;;;;6.43;1.13;;;2.10;99.90;;;;;;5058459;28;20097;-70
2023/03/28 03:06:05;;;;;;;8.23;1.50;;;2.10;99.90;;;;;;5054419;28;20041;-70
2023/03/28 03:08:31;;;;;;;11.25;1.50;;;2.00;99.90;;;;;;5055202;28;20414;-70
2023/03/28 03:10:57;;;;;;;6.78;1.50;;;2.00;99.90;;;;;;5054846;28;20036;-70
2023/03/28 03:13:22;;;;;;;10.88;1.95;;;2.00;99.90;;;;;;5055070;28;20036;-70
2023/03/28 03:15:49;;;;;;;7.22;1.48;;;2.00;99.90;;;;;;5052055;28;20085;-70
2023/03/28 03:18:15;;;;;;;14.80;2.00;;;2.10;99.90;;;;;;5058069;28;20047;-70
2023/03/28 03:20:44;;;;;;;5.13;1.20;;;2.00;99.90;;;;;;5054029;28;20105;-70
2023/03/28 03:23:11;;;;;;;7.55;1.77;;;2.00;99.90;;;;;;5054672;28;20523;-70
2023/03/28 03:25:36;;;;;;;9.02;1.40;;;2.00;99.90;;;;;;5042756;28;20504;-70
2023/03/28 03:28:02;;;;;;;8.63;1.23;;;2.00;99.90;;;;;;5074614;28;20129;-70
2023/03/28 03:30:27;;;;;;;7.70;1.60;;;2.00;99.90;;;;;;5073313;28;20055;-70
2023/03/28 03:32:54;;;;;;;5.50;1.30;;;2.00;99.90;;;;;;5074589;28;20068;-70
2023/03/28 03:35:20;;;;;;;13.98;1.55;;;2.00;99.90;;;;;;5073500;28;20085;-70
2023/03/28 03:37:46;;;;;;;9.43;1.63;;;2.10;99.90;;;;;;5057747;28;20492;-70
2023/03/28 03:40:12;;;;;;;18.02;2.78;;;2.10;99.90;;;;;;5057543;28;20044;-70
2023/03/28 03:42:38;;;;;;;10.38;1.42;;;2.10;99.90;;;;;;5057685;28;20560;-70
2023/03/28 03:45:05;;;;;;;10.80;2.00;;;2.10;99.90;;;;;;5071238;28;20123;-70
2023/03/28 03:47:31;;;;;;;7.93;1.48;;;2.00;99.90;;;;;;5053559;28;20045;-70
2023/03/28 03:49:56;;;;;;;9.18;1.60;;;2.10;99.90;;;;;;5052912;28;20466;-70
2023/03/28 03:52:22;;;;;;;8.60;1.70;;;2.00;99.90;;;;;;5054053;28;20124;-70
2023/03/28 03:54:48;;;;;;;9.13;1.83;;;2.00;99.90;;;;;;5037765;28;20044;-70
2023/03/28 03:57:13;;;;;;;8.05;1.92;;;2.00;99.90;;;;;;5072047;28;20051;-71
2023/03/28 03:59:39;;;;;;;6.35;1.35;;;2.00;99.90;;;;;;5066499;28;20095;-70
2023/03/28 04:02:05;;;;;;;12.90;1.70;;;2.00;99.90;;;;;;5053895;28;20556;-70
2023/03/28 04:04:30;;;;;;;8.23;1.65;;;2.00;99.90;;;;;;5037515;28;20052;-70
2023/03/28 04:07:01;;;;;;;8.80;1.55;;;1.90;99.90;;;;;;5036735;28;20037;-69
2023/03/28 04:09:27;;;;;;;7.85;1.25;;;1.90;99.90;;;;;;5053817;28;20493;-70
2023/03/28 04:11:53;;;;;;;5.78;1.38;;;1.90;99.90;;;;;;5037205;28;20044;-70
2023/03/28 04:14:19;;;;;;;7.50;1.58;;;1.80;99.90;;;;;;5056269;28;20037;-69
2023/03/28 04:16:48;;;;;;;5.25;0.95;;;1.80;99.90;;;;;;5053485;28;20112;-69
2023/03/28 04:19:14;;;;;;;10.05;1.48;;;1.80;99.90;;;;;;5037060;28;20120;-69
2023/03/28 04:21:41;;;;;;;8.70;1.38;;;1.80;99.90;;;;;;5050820;28;20045;-69
2023/03/28 04:24:07;;;;;;;6.50;1.38;;;1.70;99.90;;;;;;5073816;28;20036;-69
2023/03/28 04:26:36;;;;;;;9.90;1.50;;;1.70;99.90;;;;;;5056826;28;20051;-69
2023/03/28 04:29:03;;;;;;;7.38;1.90;;;1.80;99.90;;;;;;5071930;28;20497;-69
2023/03/28 04:31:29;;;;;;;9.77;1.38;;;1.70;99.90;;;;;;5056536;28;20060;-70
2023/03/28 04:33:55;;;;;;;10.40;1.20;;;1.70;99.90;;;;;;5072183;28;20040;-70
2023/03/28 04:36:24;;;;;;;12.18;2.13;;;1.70;99.90;;;;;;5039741;28;20370;-69
2023/03/28 04:38:50;;;;;;;7.93;1.63;;;1.60;99.90;;;;;;5039925;28;20479;-70
2023/03/28 04:41:16;;;;;;;7.03;1.35;;;1.60;99.90;;;;;;5064836;28;20131;-69
2023/03/28 04:43:43;;;;;;;5.95;1.50;;;1.50;99.90;;;;;;5065208;28;20037;-69
2023/03/28 04:46:09;;;;;;;7.80;1.80;;;1.50;99.90;;;;;;5065138;28;20500;-69
2023/03/28 04:48:35;;;;;;;7.38;1.50;;;1.60;99.90;;;;;;5071844;28;20455;-70
2023/03/28 04:51:01;;;;;;;7.35;1.45;;;1.60;99.90;;;;;;5052906;28;20045;-69
2023/03/28 04:53:26;;;;;;;8.93;1.40;;;1.70;99.90;;;;;;5052666;28;20481;-69
2023/03/28 04:55:52;;;;;;;9.23;1.50;;;1.70;99.90;;;;;;5068150;28;20051;-69
2023/03/28 04:58:22;;;;;;;8.25;1.77;;;1.70;99.90;;;;;;5055185;28;20043;-69
2023/03/28 05:00:48;;;;;;;5.68;1.23;;;1.70;99.90;;;;;;5051465;28;20051;-69
2023/03/28 05:03:19;;;;;;;8.88;1.58;;;1.70;99.90;;;;;;5052336;28;20119;-69
2023/03/28 05:05:51;;;;;;;10.07;2.65;;;1.60;99.90;;;;;;5051128;28;20036;-69
2023/03/28 05:08:19;;;;;;;6.70;1.57;;;1.60;99.90;;;;;;5067206;28;20051;-69
2023/03/28 05:10:45;;;;;;;5.32;1.23;;;1.60;99.90;;;;;;5065728;28;20325;-69
2023/03/28 05:13:10;;;;;;;7.15;1.38;;;1.60;99.90;;;;;;5072753;28;20028;-70
2023/03/28 05:15:36;;;;;;;9.15;1.40;;;1.60;99.90;;;;;;5069528;28;20041;-69
2023/03/28 05:18:02;;;;;;;9.52;1.83;;;1.50;99.90;;;;;;5072787;28;20393;-69
2023/03/28 05:20:28;;;;;;;5.68;1.20;;;1.50;99.90;;;;;;5065189;28;20040;-69
2023/03/28 05:22:54;;;;;;;9.10;1.88;;;1.50;99.90;;;;;;5047279;28;20044;-69
2023/03/28 05:25:20;;;;;;;5.53;1.58;;;1.50;99.90;;;;;;5065324;28;20037;-70
2023/03/28 05:27:46;;;;;;;8.07;1.50;;;1.50;99.90;;;;;;5048102;28;20091;-69
2023/03/28 05:30:12;;;;;;;6.45;1.90;;;1.50;99.90;;;;;;5035804;28;20036;-69
2023/03/28 05:32:38;;;;;;;10.55;1.95;;;1.50;99.90;;;;;;5070407;28;20044;-69
2023/03/28 05:35:05;;;;;;;8.85;2.33;;;1.50;99.90;;;;;;5055423;28;20045;-69
2023/03/28 05:37:30;;;;;;;8.10;1.73;;;1.40;99.90;;;;;;5050849;28;20374;-69
2023/03/28 05:39:56;;;;;;;8.23;1.88;;;1.40;99.90;;;;;;5054747;28;20183;-69
2023/03/28 05:42:21;;;;;;;7.63;1.92;;;1.40;99.90;;;;;;5040633;28;20451;-69
2023/03/28 05:44:47;;;;;;;8.10;1.60;;;1.40;99.90;;;;;;5051540;28;20045;-70
2023/03/28 05:47:13;;;;;;;5.47;1.35;;;1.40;99.90;;;;;;5052026;28;20060;-69
2023/03/28 05:49:38;;;;;;;10.02;1.75;;;1.40;99.90;;;;;;5068288;28;20086;-69
2023/03/28 05:52:04;;;;;;;7.60;2.15;;;1.40;99.90;;;;;;5063504;28;20544;-70
2023/03/28 05:54:30;;;;;;;6.82;1.50;;;1.40;99.90;;;;;;5047201;28;20404;-69
2023/03/28 05:56:56;;;;;;;8.52;1.80;;;1.40;99.90;;;;;;5066862;28;20054;-69
2023/03/28 05:59:23;;;;;;;12.65;2.00;;;1.40;99.90;;;;;;5071865;28;20044;-69
2023/03/28 06:01:51;;;;;;;7.88;1.60;;;1.40;99.90;;;;;;5048494;28;20040;-69
2023/03/28 06:04:17;;;;;;;8.85;1.88;;;1.40;99.90;;;;;;5056886;28;20037;-70
2023/03/28 06:06:44;;;;;;;12.52;2.63;;;1.40;99.90;;;;;;5044501;28;20037;-69
2023/03/28 06:09:10;;;;;;;8.65;2.20;;;1.50;99.90;;;;;;5057185;28;20288;-69
2023/03/28 06:11:35;;;;;;;7.22;1.80;;;1.60;99.90;;;;;;5062216;28;20043;-70
2023/03/28 06:14:01;;;;;;;11.98;1.95;;;1.70;99.90;;;;;;5047391;28;20404;-70
2023/03/28 06:16:27;;;;;;;8.35;2.08;;;1.80;99.90;;;;;;5075524;28;20040;-70
2023/03/28 06:18:53;;;;;;;9.57;1.92;;;1.80;99.90;;;;;;5054661;28;20043;-70
2023/03/28 06:21:19;;;;;;;6.68;1.58;;;1.90;99.90;;;;;;5052037;28;20032;-70
2023/03/28 06:23:45;;;;;;;7.93;1.58;;;1.90;99.90;;;;;;5076172;28;20059;-70
2023/03/28 06:26:10;;;;;;;9.57;1.30;;;1.90;99.90;;;;;;5075635;28;20071;-70
2023/03/28 06:28:36;;;;;;;7.20;1.40;;;1.90;99.90;;;;;;5059008;28;20044;-70
2023/03/28 06:31:02;;;;;;;7.28;1.75;;;2.10;99.90;;;;;;5077910;28;20036;-70
2023/03/28 06:33:27;;;;;;;7.32;1.48;;;2.30;99.90;;;;;;5059835;28;20400;-71
2023/03/28 06:35:53;;;;;;;13.27;2.00;;;2.30;99.90;;;;;;5072960;28;20488;-71
2023/03/28 06:38:19;;;;;;;8.65;1.58;;;2.30;99.90;;;;;;5073260;28;20123;-70
2023/03/28 06:40:45;;;;;;;9.52;1.73;;;2.30;99.90;;;;;;5077601;28;20067;-70
2023/03/28 06:43:11;;;;;;;9.88;2.95;;;2.40;99.90;;;;;;5059972;28;20055;-71
2023/03/28 06:45:36;;;;;;;11.70;1.92;;;2.50;99.90;;;;;;5076242;28;20044;-70
2023/03/28 06:48:02;;;;;;;7.40;1.42;;;2.50;99.90;;;;;;5069300;28;20122;-71
2023/03/28 06:50:28;;;;;;;8.90;1.77;;;2.60;99.90;;;;;;5064300;28;20067;-71
2023/03/28 06:52:53;;;;;;;15.15;2.85;;;2.70;99.90;;;;;;5049422;28;20557;-71
2023/03/28 06:55:21;;;;;;;10.63;1.67;;;2.80;99.90;;;;;;5071876;28;20662;-71
2023/03/28 06:57:47;;;;;;;10.27;1.80;;;2.90;99.90;;;;;;5058764;28;20047;-71
2023/03/28 07:00:13;;;;;;;10.18;1.63;;;2.90;99.90;;;;;;5058854;28;20036;-71
2023/03/28 07:02:39;;;;;;;6.95;1.48;;;2.90;99.90;;;;;;5048664;28;20051;-71
2023/03/28 07:05:06;;;;;;;11.10;2.08;;;3.00;99.90;;;;;;5058760;28;20102;-71
2023/03/28 07:07:32;;;;;;;9.05;2.13;;;3.10;99.90;;;;;;5073134;28;20047;-71
2023/03/28 07:09:57;;;;;;;9.85;2.28;;;3.00;99.90;;;;;;5053408;28;20045;-71
2023/03/28 07:12:23;;;;;;;7.45;1.70;;;3.00;99.90;;;;;;5062983;28;20071;-71
2023/03/28 07:14:48;;;;;;;7.70;1.80;;;3.10;99.90;;;;;;5056887;28;20032;-71
2023/03/28 07:17:14;;;;;;;8.50;1.60;;;3.20;99.90;;;;;;5076487;28;20037;-71
2023/03/28 07:19:39;;;;;;;9.10;1.60;;;3.40;99.90;;;;;;5073478;28;20408;-71
2023/03/28 07:22:05;;;;;;;10.07;1.70;;;3.60;99.90;;;;;;5065380;28;20136;-70
2023/03/28 07:24:31;;;;;;;8.48;1.92;;;3.80;99.90;;;;;;5057200;28;20443;-71
2023/03/28 07:26:57;;;;;;;8.30;1.77;;;3.90;99.90;;;;;;5051958;28;20043;-70
2023/03/28 07:29:22;;;;;;;9.95;1.67;;;4.00;99.90;;;;;;5055229;28;20090;-71
2023/03/28 07:31:48;;;;;;;8.48;1.70;;;4.20;99.90;;;;;;5071733;28;20060;-71
2023/03/28 07:34:17;;;;;;;7.28;1.25;;;4.30;99.90;;;;;;5057716;28;20032;-70
2023/03/28 07:36:43;;;;;;;8.13;1.65;;;4.40;99.90;;;;;;5069795;28;20039;-71
2023/03/28 07:39:09;;;;;;;13.23;1.98;;;4.40;99.90;;;;;;5048092;28;20040;-70
2023/03/28 07:41:34;;;;;;;7.72;1.40;;;4.50;99.90;;;;;;5045525;28;20037;-70
2023/03/28 07:44:00;;;;;;;9.75;1.85;;;4.80;99.90;;;;;;5055820;28;20041;-70
2023/03/28 07:46:26;;;;;;;8.18;1.40;;;4.80;99.90;;;;;;5053014;28;20036;-71
2023/03/28 07:48:52;;;;;;;9.32;1.98;;;4.90;99.90;;;;;;5041456;28;20079;-70
2023/03/28 07:51:18;;;;;;;6.65;1.73;;;4.90;99.90;;;;;;5053316;28;20053;-71
2023/03/28 07:53:44;;;;;;;7.22;1.00;;;5.00;99.90;;;;;;5053872;28;20311;-70
2023/03/28 07:56:10;;;;;;;8.73;1.50;;;5.20;99.90;;;;;;5062243;28;20033;-70
2023/03/28 07:58:37;;;;;;;6.60;1.30;;;5.40;99.90;;;;;;5043305;28;20032;-71
2023/03/28 08:01:05;;;;;;;3.75;1.10;;;5.50;99.90;;;;;;5057001;28;20048;-70
2023/03/28 08:03:31;;;;;;;9.20;1.33;;;5.60;99.90;;;;;;5072221;28;20093;-70
2023/03/28 08:06:04;;;;;;;10.40;1.55;;;5.60;99.90;;;;;;5049548;28;20037;-70
2023/03/28 08:08:30;;;;;;;3.45;1.13;;;5.60;99.90;;;;;;5053877;28;20047;-70
2023/03/28 08:10:56;;;;;;;6.82;1.77;;;5.80;99.90;;;;;;5073313;28;20036;-70
2023/03/28 08:13:21;;;;;;;6.85;1.20;;;5.70;99.90;;;;;;5050922;28;20033;-71
2023/03/28 08:15:53;;;;;;;6.90;1.42;;;5.80;99.90;;;;;;5040027;28;20041;-70
2023/03/28 08:18:20;;;;;;;9.77;1.42;;;5.70;99.90;;;;;;5052616;28;20443;-71
2023/03/28 08:20:49;;;;;;;13.60;2.47;;;5.70;99.90;;;;;;5036130;28;20056;-70
2023/03/28 08:23:15;;;;;;;4.68;1.02;;;5.90;99.90;;;;;;5071593;28;20503;-70
2023/03/28 08:25:42;;;;;;;5.97;1.20;;;5.90;99.90;;;;;;5055683;28;20079;-70
2023/03/28 08:28:08;;;;;;;8.45;1.10;;;5.90;99.90;;;;;;5062616;28;20080;-71
2023/03/28 08:30:34;;;;;;;9.32;1.65;;;5.90;99.90;;;;;;5041481;28;20082;-71
2023/03/28 08:33:03;;;;;;;3.08;1.00;;;5.80;99.90;;;;;;5053635;28;20032;-71
2023/03/28 08:35:29;;;;;;;7.75;1.50;;;6.00;99.90;;;;;;5051230;28;20793;-71
2023/03/28 08:37:55;;;;;;;8.45;1.40;;;6.00;99.90;;;;;;5057862;28;20071;-70
2023/03/28 08:40:22;;;;;;;9.07;1.90;;;6.10;99.90;;;;;;5090104;28;20075;-71
2023/03/28 08:43:14;;;;;;;6.25;1.17;;;6.00;99.90;;;;;;5072825;28;20113;-71
2023/03/28 08:46:10;;;;;;;7.25;2.25;;;6.00;99.90;;;;;;5063703;28;20040;-71
2023/03/28 08:48:42;;;;;;;7.28;1.17;;;5.90;99.90;;;;;;5054923;28;20139;-70
2023/03/28 08:51:35;;;;;;;9.90;1.40;;;6.10;99.90;;;;;;5072019;28;20057;-70
2023/03/28 08:54:07;;;;;;;5.65;0.90;;;6.30;99.90;;;;;;5045953;28;20044;-71
2023/03/28 08:56:38;;;;;;;5.70;1.10;;;6.20;99.90;;;;;;5053871;28;20127;-71
2023/03/28 08:59:12;;;;;;;4.30;0.90;;;6.20;99.90;;;;;;5056500;28;20040;-70
2023/03/28 09:01:38;;;;;;;6.47;1.20;;;6.20;99.90;;;;;;5072936;28;20055;-71
2023/03/28 09:04:04;;;;;;;5.03;1.10;;;6.30;99.90;;;;;;5054328;28;20047;-71
2023/03/28 09:06:44;;;;;;;6.35;1.30;;;6.10;99.90;;;;;;5059670;28;20519;-71
2023/03/28 09:09:33;;;;;;;4.88;1.10;;;6.30;99.90;;;;;;5068431;28;20488;-71
2023/03/28 09:12:34;;;;;;;5.88;1.13;;;6.40;99.90;;;;;;5060239;28;20044;-71
2023/03/28 09:15:15;;;;;;;4.85;1.00;;;6.50;99.90;;;;;;5072448;28;20044;-71
2023/03/28 09:17:54;;;;;;;7.38;1.65;;;6.50;99.90;;;;;;5072187;28;20043;-71
2023/03/28 09:20:36;;;;;;;7.63;1.48;;;6.30;99.90;;;;;;5072108;28;20047;-72
2023/03/28 09:23:24;;;;;;;3.80;1.30;;;6.30;99.90;;;;;;5054831;28;20036;-71
2023/03/28 09:26:05;;;;;;;5.13;1.40;;;6.40;99.90;;;;;;5071143;28;20047;-71
2023/03/28 09:28:50;;;;;;;6.13;1.52;;;6.50;99.90;;;;;;5072409;28;20381;-71
2023/03/28 09:31:19;;;;;;;6.07;1.13;;;6.60;99.90;;;;;;5072509;28;20044;-71
2023/03/28 09:33:48;;;;;;;4.72;1.10;;;6.50;99.90;;;;;;5055759;28;20071;-71
2023/03/28 09:36:39;;;;;;;6.65;1.10;;;6.50;99.90;;;;;;5072290;28;20043;-71
2023/03/28 09:39:25;;;;;;;4.65;0.80;;;6.60;99.90;;;;;;5072270;28;20032;-71
2023/03/28 09:41:59;;;;;;;4.60;0.95;;;6.50;99.90;;;;;;5055547;28;20095;-71
2023/03/28 09:44:30;;;;;;;7.60;1.08;;;6.40;99.90;;;;;;5055367;28;20046;-71
2023/03/28 09:46:58;;;;;;;9.10;1.10;;;6.30;99.90;;;;;;5072134;28;20463;-71
2023/03/28 09:49:25;;;;;;;5.68;1.10;;;6.50;99.90;;;;;;5071369;28;20124;-71
2023/03/28 09:51:53;;;;;;;3.90;1.13;;;6.60;99.90;;;;;;5071908;28;20045;-72
2023/03/28 09:54:29;;;;;;;5.40;1.42;;;6.50;99.90;;;;;;5055174;28;20033;-71
2023/03/28 09:57:04;;;;;;;4.72;1.10;;;6.60;99.90;;;;;;5070878;28;20116;-71
2023/03/28 09:59:32;;;;;;;6.47;1.55;;;6.50;99.90;;;;;;5071951;28;20032;-71
2023/03/28 10:02:01;;;;;;;4.53;1.00;;;6.60;99.90;;;;;;5072025;28;20075;-71
2023/03/28 10:04:26;;;;;;;6.65;1.00;;;6.70;99.90;;;;;;5071810;28;20041;-71
2023/03/28 10:06:53;;;;;;;6.00;1.02;;;6.80;99.90;;;;;;5055192;28;20039;-71
2023/03/28 10:09:19;;;;;;;3.38;1.00;;;6.90;99.90;;;;;;5071790;28;20087;-71
2023/03/28 10:11:56;;;;;;;4.72;1.00;;;6.90;99.90;;;;;;5055155;28;20078;-71
2023/03/28 10:14:31;;;;;;;5.68;1.00;;;6.80;99.90;;;;;;5071657;28;20036;-71
2023/03/28 10:17:01;;;;;;;4.70;1.00;;;6.80;99.90;;;;;;5072055;28;20037;-71
2023/03/28 10:19:32;;;;;;;5.05;0.70;;;6.90;99.90;;;;;;5054899;28;20041;-71
2023/03/28 10:22:03;;;;;;;4.22;1.23;;;7.10;99.90;;;;;;5069526;28;20049;-74
2023/03/28 10:24:31;;;;;;;6.43;1.10;;;7.20;99.90;;;;;;5052749;28;20044;-71
2023/03/28 10:27:05;;;;;;;4.57;1.10;;;7.10;99.90;;;;;;5051171;28;20113;-71
2023/03/28 10:29:32;;;;;;;3.80;1.13;;;7.00;99.90;;;;;;5049829;28;20049;-71
2023/03/28 10:31:58;;;;;;;3.45;1.10;;;7.10;99.90;;;;;;5068324;28;20052;-71
2023/03/28 10:34:26;;;;;;;6.68;2.22;;;7.20;99.90;;;;;;5039947;28;20393;-71
2023/03/28 10:36:52;;;;;;;4.43;1.60;;;7.30;99.90;;;;;;5051877;28;20044;-71
2023/03/28 10:39:27;;;;;;;1.75;0.65;;;7.20;99.90;;;;;;5054904;28;20110;-71
2023/03/28 10:41:59;;;;;;;3.88;0.90;;;7.30;99.90;;;;;;5071829;28;20405;-72
2023/03/28 10:44:36;;;;;;;8.55;1.48;;;7.40;99.90;;;;;;5054647;28;20480;-71
2023/03/28 10:47:06;;;;;;;6.50;1.17;;;7.30;99.90;;;;;;5068176;28;20044;-71
2023/03/28 10:49:47;;;;;;;4.32;0.90;;;7.30;99.90;;;;;;5050159;28;20072;-71
2023/03/28 10:52:21;;;;;;;5.30;1.13;;;7.40;99.90;;;;;;5051583;28;20047;-71
2023/03/28 10:55:15;;;;;;;5.55;1.40;;;7.30;99.90;;;;;;5052121;28;20036;-71
2023/03/28 10:58:03;;;;;;;2.45;0.90;;;7.50;99.90;;;;;;5054746;28;20087;-71
2023/03/28 11:00:44;;;;;;;5.20;1.45;;;7.60;99.90;;;;;;5073743;28;20048;-71
2023/03/28 11:03:35;;;;;;;3.42;1.10;;;7.50;99.90;;;;;;5075215;28;20408;-71
2023/03/28 11:06:16;;;;;;;5.82;1.13;;;7.60;99.90;;;;;;5058335;28;20048;-71
2023/03/28 11:09:12;;;;;;;2.40;0.93;;;7.60;99.90;;;;;;5074953;28;20040;-72
2023/03/28 11:11:43;;;;;;;4.15;1.13;;;7.60;99.90;;;;;;5058282;28;20040;-71
2023/03/28 11:14:27;;;;;;;3.30;1.00;;;7.70;99.90;;;;;;5075217;28;20036;-71
2023/03/28 11:17:03;;;;;;;2.63;0.80;;;7.70;99.90;;;;;;5058273;28;20044;-71
2023/03/28 11:19:58;;;;;;;7.57;1.15;;;7.70;99.90;;;;;;5058104;28;20036;-71
2023/03/28 11:22:55;;;;;;;5.72;1.58;;;7.60;99.90;;;;;;5074772;28;20094;-71
2023/03/28 11:25:27;;;;;;;3.83;1.30;;;7.60;99.90;;;;;;5058093;28;20089;-71
2023/03/28 11:27:57;;;;;;;4.38;1.27;;;7.60;99.90;;;;;;5058031;28;20123;-71
2023/03/28 11:30:30;;;;;;;3.65;1.35;;;7.80;99.90;;;;;;5057971;28;20485;-71
2023/03/28 11:33:10;;;;;;;3.75;1.25;;;7.80;99.90;;;;;;5074616;28;20032;-71
2023/03/28 11:35:43;;;;;;;5.93;1.58;;;7.90;99.90;;;;;;5057769;28;20501;-71
2023/03/28 11:38:14;;;;;;;5.47;1.40;;;7.90;99.90;;;;;;5053353;28;20493;-71
2023/03/28 11:40:55;;;;;;;5.72;1.60;;;8.10;99.90;;;;;;5054354;28;20049;-71
2023/03/28 11:43:29;;;;;;;5.78;1.50;;;8.20;99.90;;;;;;5054449;28;20052;-71
2023/03/28 11:46:02;;;;;;;5.30;1.50;;;8.30;99.90;;;;;;5054337;28;20041;-71
2023/03/28 11:48:51;;;;;;;6.70;1.70;;;8.30;99.90;;;;;;5054376;28;20404;-71
2023/03/28 11:51:40;;;;;;;5.03;1.63;;;8.20;99.90;;;;;;5054050;28;20102;-71
2023/03/28 11:54:15;;;;;;;7.47;1.98;;;8.10;99.90;;;;;;5054237;28;20075;-71
2023/03/28 11:56:41;;;;;;;4.90;1.48;;;8.20;99.90;;;;;;5037485;28;20033;-71
2023/03/28 11:59:16;;;;;;;7.05;2.10;;;8.10;99.90;;;;;;5054117;28;20045;-71
2023/03/28 12:01:48;;;;;;;5.63;1.60;;;8.10;99.90;;;;;;5059602;28;20032;-71
2023/03/28 12:04:38;;;;;;;6.50;1.67;;;8.20;99.90;;;;;;5056510;28;20102;-71
2023/03/28 12:07:06;;;;;;;5.88;2.10;;;8.20;99.90;;;;;;5056954;28;20033;-71
2023/03/28 12:10:02;;;;;;;6.85;2.03;;;8.30;99.90;;;;;;5073887;28;20044;-71
2023/03/28 12:12:32;;;;;;;9.90;1.83;;;8.30;99.90;;;;;;5056502;28;20040;-71
2023/03/28 12:15:09;;;;;;;7.13;2.35;;;8.30;99.90;;;;;;5073845;28;20044;-71
2023/03/28 12:17:44;;;;;;;7.22;2.10;;;8.30;99.90;;;;;;5057292;28;20094;-71
2023/03/28 12:20:38;;;;;;;6.38;1.77;;;8.30;99.90;;;;;;5073926;28;20400;-71
2023/03/28 12:23:12;;;;;;;5.25;1.75;;;8.40;99.90;;;;;;5057043;28;20044;-71
2023/03/28 12:26:02;;;;;;;7.85;1.63;;;8.50;99.90;;;;;;5056813;28;20080;-71
2023/03/28 12:28:34;;;;;;;4.32;1.63;;;8.50;99.90;;;;;;5056767;28;20032;-71
2023/03/28 12:31:27;;;;;;;4.15;1.48;;;8.50;99.80;;;;;;5069813;28;20048;-71
2023/03/28 12:33:56;;;;;;;6.90;2.40;;;8.50;99.90;;;;;;5064189;28;20445;-71
2023/03/28 12:36:48;;;;;;;8.00;2.20;;;8.40;99.90;;;;;;5054529;28;20032;-71
2023/03/28 12:39:34;;;;;;;6.77;1.40;;;8.50;99.90;;;;;;5043274;28;20036;-70
2023/03/28 12:42:04;;;;;;;6.80;1.58;;;8.60;99.90;;;;;;5052836;28;20367;-71
2023/03/28 12:44:41;;;;;;;8.05;1.80;;;8.70;99.90;;;;;;5052586;28;20078;-71
2023/03/28 12:47:15;;;;;;;5.25;1.80;;;8.70;99.90;;;;;;5035843;28;20040;-71
2023/03/28 12:49:45;;;;;;;2.47;1.08;;;8.80;99.90;;;;;;5052190;28;20066;-70
2023/03/28 12:52:16;;;;;;;5.07;1.40;;;8.90;99.00;;;;;;5052618;28;20041;-71
2023/03/28 12:55:08;;;;;;;5.00;1.70;;;8.90;99.40;;;;;;5036068;28;20174;-71
2023/03/28 12:57:43;;;;;;;6.18;2.00;;;8.90;99.90;;;;;;5036007;28;20041;-71
2023/03/28 13:00:38;;;;;;;5.28;1.27;;;8.80;99.90;;;;;;5038425;28;20040;-71
2023/03/28 13:03:06;;;;;;;4.70;1.70;;;8.70;99.90;;;;;;5072243;28;20041;-71
2023/03/28 13:05:57;;;;;;;4.82;1.40;;;8.80;97.90;;;;;;5068237;28;20052;-70
2023/03/28 13:08:29;;;;;;;8.80;2.17;;;8.80;97.50;;;;;;5036088;28;20536;-71
2023/03/28 13:11:07;;;;;;;;;;;8.70;98.70;;;;;;5052667;28;20033;-71
2023/03/28 13:13:57;;;;;;;2.28;0.77;;;8.70;98.40;;;;;;5052026;28;19916;-71
2023/03/28 13:16:57;;;;;;;6.18;1.98;;;8.80;98.10;;;;;;5035192;28;20076;-71
2023/03/28 13:19:40;;;;;;;4.00;1.30;;;8.80;98.90;;;;;;5035071;28;20044;-71
2023/03/28 13:22:27;;;;;;;3.83;1.50;;;8.80;99.90;;;;;;5066183;28;20040;-71